createdAt,value
2023-04-23T00:00:19.278Z,100063.06
2023-04-23T00:02:46.988Z,100110.31
2023-04-23T00:05:13.922Z,100101.78
2023-04-23T00:07:41.687Z,100080.53
2023-04-23T00:10:09.246Z,100009.84
2023-04-23T00:12:35.980Z,100110.09
2023-04-23T00:15:04.014Z,100142.44
2023-04-23T00:17:30.469Z,100044.19
2023-04-23T00:19:56.866Z,100130.03
2023-04-23T00:22:23.239Z,100124.84
2023-04-23T00:24:49.615Z,100096.66
2023-04-23T00:27:17.975Z,100052.25
2023-04-23T00:29:46.307Z,100132.66
2023-04-23T00:32:14.543Z,100114.34
2023-04-23T00:34:41.237Z,100121.78
2023-04-23T00:37:07.911Z,100049.16
2023-04-23T00:39:35.093Z,100105.47
2023-04-23T00:42:07.004Z,99940.91
2023-04-23T00:44:33.680Z,100129.63
2023-04-23T00:47:00.643Z,100073.91
2023-04-23T00:49:27.833Z,100010.28
2023-04-23T00:51:54.165Z,100074.09
2023-04-23T00:54:20.493Z,100098.34
2023-04-23T00:56:47.278Z,100031.91
2023-04-23T00:59:14.096Z,100092.75
2023-04-23T01:01:41.136Z,100081.59
2023-04-23T01:04:09.538Z,99996.03
2023-04-23T01:06:36.266Z,100062.53
2023-04-23T01:09:03.561Z,100065.94
2023-04-23T01:11:30.398Z,99873.50
2023-04-23T01:13:57.056Z,100076.00
2023-04-23T01:16:23.464Z,100079.66
2023-04-23T01:18:49.843Z,100056.88
2023-04-23T01:21:17.118Z,99980.75
2023-04-23T01:23:43.475Z,100055.47
2023-04-23T01:26:10.800Z,100038.81
2023-04-23T01:28:37.351Z,100073.38
2023-04-23T01:31:04.118Z,100064.69
2023-04-23T01:33:31.748Z,100069.13
2023-04-23T01:35:59.239Z,100080.19
2023-04-23T01:38:30.753Z,100038.03
2023-04-23T01:40:57.085Z,100063.53
2023-04-23T01:43:24.759Z,100064.34
2023-04-23T01:45:51.448Z,100034.41
2023-04-23T01:48:17.841Z,100058.97
2023-04-23T01:50:44.345Z,99937.28
2023-04-23T01:53:10.674Z,100069.63
2023-04-23T01:55:39.297Z,100074.25
2023-04-23T01:58:06.246Z,100044.31
2023-04-23T02:00:32.850Z,100030.41
2023-04-23T02:02:59.436Z,100041.19
2023-04-23T02:05:28.755Z,100017.28
2023-04-23T02:07:55.695Z,100065.13
2023-04-23T02:10:22.184Z,99988.16
2023-04-23T02:12:48.552Z,99980.91
2023-04-23T02:15:15.746Z,100081.88
2023-04-23T02:17:42.203Z,100084.41
2023-04-23T02:20:10.227Z,100082.69
2023-04-23T02:22:39.089Z,100050.22
2023-04-23T02:25:07.209Z,100073.44
2023-04-23T02:27:34.409Z,100052.72
2023-04-23T02:30:00.717Z,100044.03
2023-04-23T02:32:28.006Z,100041.50
2023-04-23T02:34:54.406Z,99995.19
2023-04-23T02:37:21.242Z,100048.84
2023-04-23T02:39:47.581Z,100035.38
2023-04-23T02:42:14.121Z,100015.00
2023-04-23T02:44:40.770Z,100005.56
2023-04-23T02:47:07.333Z,99966.38
2023-04-23T02:49:33.682Z,100035.38
2023-04-23T02:52:00.433Z,99919.75
2023-04-23T02:54:26.781Z,99930.78
2023-04-23T02:56:53.308Z,99966.19
2023-04-23T02:59:19.727Z,100018.28
2023-04-23T03:01:46.173Z,100028.41
2023-04-23T03:04:12.779Z,99986.38
2023-04-23T03:06:39.224Z,99949.56
2023-04-23T03:09:05.590Z,100026.47
2023-04-23T03:11:32.024Z,100029.84
2023-04-23T03:13:58.493Z,99918.94
2023-04-23T03:16:25.047Z,100001.09
2023-04-23T03:18:51.460Z,99878.44
2023-04-23T03:21:17.936Z,100036.31
2023-04-23T03:23:44.299Z,100014.97
2023-04-23T03:26:10.818Z,100041.75
2023-04-23T03:28:37.189Z,99950.22
2023-04-23T03:31:03.593Z,99998.88
2023-04-23T03:33:29.981Z,100034.13
2023-04-23T03:35:56.449Z,99935.91
2023-04-23T03:38:22.825Z,99958.78
2023-04-23T03:40:49.218Z,99997.06
2023-04-23T03:43:15.550Z,99971.97
2023-04-23T03:45:41.917Z,99954.97
2023-04-23T03:48:08.266Z,100030.28
2023-04-23T03:50:38.784Z,99924.72
2023-04-23T03:53:05.186Z,99987.69
2023-04-23T03:55:31.622Z,100002.84
2023-04-23T03:58:00.333Z,100014.09
2023-04-23T04:00:26.775Z,99989.41
2023-04-23T04:02:53.249Z,100004.94
2023-04-23T04:05:19.827Z,99888.97
2023-04-23T04:07:46.244Z,99880.56
2023-04-23T04:10:12.617Z,100017.22
2023-04-23T04:12:39.818Z,100002.88
2023-04-23T04:15:06.786Z,99974.75
2023-04-23T04:17:33.220Z,100010.97
2023-04-23T04:19:59.622Z,99962.91
2023-04-23T04:22:26.129Z,99955.25
2023-04-23T04:24:52.737Z,99908.47
2023-04-23T04:27:19.148Z,99982.47
2023-04-23T04:29:45.546Z,99977.38
2023-04-23T04:32:13.577Z,99936.69
2023-04-23T04:34:40.423Z,99923.03
2023-04-23T04:37:07.630Z,99939.19
2023-04-23T04:39:34.015Z,99991.94
2023-04-23T04:42:02.815Z,100010.75
2023-04-23T04:44:30.329Z,100022.53
2023-04-23T04:46:56.799Z,100043.28
2023-04-23T04:49:23.815Z,100017.22
2023-04-23T04:51:50.204Z,100018.75
2023-04-23T04:54:16.559Z,99928.13
2023-04-23T04:56:42.953Z,100033.16
2023-04-23T04:59:09.280Z,99914.00
2023-04-23T05:01:37.113Z,99986.63
2023-04-23T05:04:04.070Z,99916.63
2023-04-23T05:06:32.226Z,100021.28
2023-04-23T05:08:58.626Z,100022.66
2023-04-23T05:11:24.991Z,100003.97
2023-04-23T05:13:51.768Z,99901.97
2023-04-23T05:16:18.345Z,99915.31
2023-04-23T05:18:44.768Z,100006.88
2023-04-23T05:21:11.118Z,100002.00
2023-04-23T05:23:37.576Z,100022.13
2023-04-23T05:26:04.266Z,99975.75
2023-04-23T05:28:31.332Z,100020.16
2023-04-23T05:30:58.343Z,100009.91
2023-04-23T05:33:30.705Z,100049.09
2023-04-23T05:35:59.717Z,100050.66
2023-04-23T05:38:26.283Z,99929.78
2023-04-23T05:40:52.775Z,100018.22
2023-04-23T05:43:19.157Z,99961.16
2023-04-23T05:45:45.608Z,99976.69
2023-04-23T05:48:11.992Z,100037.13
2023-04-23T05:50:38.470Z,100023.53
2023-04-23T05:53:05.002Z,100021.25
2023-04-23T05:55:31.555Z,99936.09
2023-04-23T05:57:57.985Z,99983.78
2023-04-23T06:00:24.330Z,99983.91
2023-04-23T06:02:51.035Z,99941.34
2023-04-23T06:05:18.057Z,99941.28
2023-04-23T06:07:44.565Z,100047.91
2023-04-23T06:10:11.455Z,100010.25
2023-04-23T06:12:39.203Z,100043.06
2023-04-23T06:15:07.180Z,100008.50
2023-04-23T06:17:33.586Z,100011.59
2023-04-23T06:19:59.956Z,100039.84
2023-04-23T06:22:26.452Z,100011.53
2023-04-23T06:24:52.986Z,100006.28
2023-04-23T06:27:19.388Z,100025.44
2023-04-23T06:29:45.699Z,99922.59
2023-04-23T06:32:12.368Z,99985.38
2023-04-23T06:34:46.711Z,100007.47
2023-04-23T06:37:16.340Z,100002.34
2023-04-23T06:39:42.704Z,100016.13
2023-04-23T06:42:09.110Z,100029.66
2023-04-23T06:44:35.492Z,100011.66
2023-04-23T06:47:01.852Z,100012.34
2023-04-23T06:49:28.286Z,99982.28
2023-04-23T06:51:57.039Z,99991.25
2023-04-23T06:54:24.195Z,99970.28
2023-04-23T06:56:51.012Z,99989.78
2023-04-23T06:59:17.404Z,99975.84
2023-04-23T07:01:43.837Z,99969.44
2023-04-23T07:04:10.244Z,99980.41
2023-04-23T07:06:36.700Z,99982.84
2023-04-23T07:09:03.183Z,100010.50
2023-04-23T07:11:31.914Z,99984.88
2023-04-23T07:13:58.519Z,99969.47
2023-04-23T07:16:25.728Z,99995.06
2023-04-23T07:18:52.073Z,99958.56
2023-04-23T07:21:18.552Z,99964.34
2023-04-23T07:23:44.969Z,99960.91
2023-04-23T07:26:11.776Z,99941.72
2023-04-23T07:28:38.142Z,99852.19
2023-04-23T07:31:04.700Z,99964.53
2023-04-23T07:33:31.197Z,99959.72
2023-04-23T07:35:57.592Z,99971.28
2023-04-23T07:38:24.057Z,99950.47
2023-04-23T07:40:52.783Z,99795.47
2023-04-23T07:43:19.289Z,99945.03
2023-04-23T07:45:45.806Z,99955.31
2023-04-23T07:48:12.256Z,99892.97
2023-04-23T07:50:38.717Z,99969.97
2023-04-23T07:53:05.083Z,99905.69
2023-04-23T07:55:31.654Z,99970.53
2023-04-23T07:57:58.026Z,99878.72
2023-04-23T08:00:25.668Z,99930.75
2023-04-23T08:02:53.404Z,99919.63
2023-04-23T08:05:20.182Z,99937.03
2023-04-23T08:07:46.550Z,99958.72
2023-04-23T08:10:12.932Z,99916.19
2023-04-23T08:12:39.293Z,99924.34
2023-04-23T08:15:06.473Z,99921.56
2023-04-23T08:17:32.857Z,99902.94
2023-04-23T08:19:59.211Z,99872.69
2023-04-23T08:22:25.610Z,99936.75
2023-04-23T08:24:52.112Z,99917.13
2023-04-23T08:27:18.451Z,99916.81
2023-04-23T08:29:44.857Z,99896.50
2023-04-23T08:32:11.380Z,99870.97
2023-04-23T08:34:38.010Z,99960.69
2023-04-23T08:37:04.907Z,99901.19
2023-04-23T08:39:33.076Z,99938.31
2023-04-23T08:42:18.711Z,99920.75
2023-04-23T08:44:46.807Z,99936.84
2023-04-23T08:47:17.870Z,99870.50
2023-04-23T08:49:46.420Z,99893.66
2023-04-23T08:52:20.429Z,99945.09
2023-04-23T08:54:50.672Z,99901.69
2023-04-23T08:57:18.057Z,99943.34
2023-04-23T08:59:46.471Z,99900.06
2023-04-23T09:02:15.863Z,99851.56
2023-04-23T09:04:42.392Z,99851.44
2023-04-23T09:07:11.320Z,99908.22
2023-04-23T09:09:39.546Z,99905.94
2023-04-23T09:12:07.551Z,99948.78
2023-04-23T09:14:34.857Z,99905.44
2023-04-23T09:17:03.104Z,99899.88
2023-04-23T09:19:30.296Z,99864.38
2023-04-23T09:21:58.617Z,99895.19
2023-04-23T09:24:25.987Z,99896.03
2023-04-23T09:26:52.943Z,99930.75
2023-04-23T09:29:21.402Z,99907.28
2023-04-23T09:31:52.960Z,99928.25
2023-04-23T09:34:21.349Z,99905.25
2023-04-23T09:36:50.574Z,99855.50
2023-04-23T09:39:19.191Z,99877.25
2023-04-23T09:41:46.475Z,99919.47
2023-04-23T09:44:18.412Z,99833.97
2023-04-23T09:46:46.450Z,99804.81
2023-04-23T09:49:13.605Z,99892.19
2023-04-23T09:51:44.422Z,99907.00
2023-04-23T09:54:22.748Z,99802.66
2023-04-23T09:56:51.240Z,99893.91
2023-04-23T09:59:29.007Z,99898.03
2023-04-23T10:02:04.504Z,99828.22
2023-04-23T10:04:30.933Z,99825.06
2023-04-23T10:07:17.250Z,99897.91
2023-04-23T10:09:45.338Z,99886.88
2023-04-23T10:12:28.976Z,99870.38
2023-04-23T10:15:00.295Z,99890.97
2023-04-23T10:17:27.210Z,99840.00
2023-04-23T10:19:55.814Z,99773.41
2023-04-23T10:22:22.852Z,99879.88
2023-04-23T10:24:57.085Z,99857.84
2023-04-23T10:27:40.633Z,99879.09
2023-04-23T10:30:15.068Z,99866.66
2023-04-23T10:32:42.125Z,99844.44
2023-04-23T10:35:09.663Z,99867.19
2023-04-23T10:37:37.353Z,99868.66
2023-04-23T10:40:11.262Z,99836.97
2023-04-23T10:42:39.563Z,99865.75
2023-04-23T10:45:24.170Z,99874.97
2023-04-23T10:47:54.671Z,99858.25
2023-04-23T10:50:26.554Z,99851.38
2023-04-23T10:52:54.695Z,99801.81
2023-04-23T10:55:27.085Z,99807.88
2023-04-23T10:58:00.836Z,99860.63
2023-04-23T11:00:29.474Z,99765.81
2023-04-23T11:02:56.220Z,99851.72
2023-04-23T11:05:25.831Z,99742.03
2023-04-23T11:08:18.999Z,99846.41
2023-04-23T11:10:58.569Z,99795.78
2023-04-23T11:13:32.292Z,99836.22
2023-04-23T11:16:17.627Z,99852.16
2023-04-23T11:18:58.118Z,99777.66
2023-04-23T11:22:02.934Z,99808.59
2023-04-23T11:24:31.401Z,99790.03
2023-04-23T11:26:58.293Z,99840.44
2023-04-23T11:29:26.980Z,99791.88
2023-04-23T11:32:02.655Z,99824.94
2023-04-23T11:34:30.262Z,99762.78
2023-04-23T11:36:59.150Z,99726.50
2023-04-23T11:39:26.760Z,99801.63
2023-04-23T11:41:54.012Z,99808.91
2023-04-23T11:44:21.653Z,99726.09
2023-04-23T11:46:49.545Z,99740.97
2023-04-23T11:49:18.621Z,99738.78
2023-04-23T11:51:46.199Z,99779.41
2023-04-23T11:54:13.425Z,99709.91
2023-04-23T11:56:40.933Z,99788.41
2023-04-23T11:59:07.789Z,99752.38
2023-04-23T12:01:44.360Z,99708.97
2023-04-23T12:04:19.484Z,99693.97
2023-04-23T12:06:47.841Z,99750.91
2023-04-23T12:09:15.924Z,99705.78
2023-04-23T12:11:44.320Z,99756.59
2023-04-23T12:14:12.543Z,99741.28
2023-04-23T12:16:42.505Z,99712.72
2023-04-23T12:19:26.723Z,99735.63
2023-04-23T12:21:57.873Z,99700.25
2023-04-23T12:24:29.937Z,99733.72
2023-04-23T12:27:02.487Z,99636.63
2023-04-23T12:29:32.102Z,99648.44
2023-04-23T12:32:00.275Z,99695.03
2023-04-23T12:34:26.863Z,99726.31
2023-04-23T12:36:56.201Z,99719.66
2023-04-23T12:39:36.246Z,99645.50
2023-04-23T12:42:05.641Z,99711.06
2023-04-23T12:44:34.695Z,99691.28
2023-04-23T12:47:04.609Z,99703.38
2023-04-23T12:49:32.243Z,99666.28
2023-04-23T12:52:02.629Z,99623.31
2023-04-23T12:54:34.481Z,99694.56
2023-04-23T12:57:04.157Z,99628.75
2023-04-23T12:59:31.350Z,99605.19
2023-04-23T13:02:02.360Z,99676.53
2023-04-23T13:04:30.491Z,99636.69
2023-04-23T13:06:57.044Z,99638.16
2023-04-23T13:09:26.876Z,99578.50
2023-04-23T13:11:53.915Z,99560.03
2023-04-23T13:14:21.221Z,99619.72
2023-04-23T13:16:47.921Z,99630.91
2023-04-23T13:19:16.138Z,99622.84
2023-04-23T13:21:42.579Z,99635.53
2023-04-23T13:24:08.956Z,99625.03
2023-04-23T13:26:35.502Z,99604.22
2023-04-23T13:29:02.724Z,99532.63
2023-04-23T13:31:29.113Z,99526.88
2023-04-23T13:33:56.080Z,99622.31
2023-04-23T13:36:22.600Z,99522.13
2023-04-23T13:38:49.011Z,99602.81
2023-04-23T13:41:16.624Z,99537.47
2023-04-23T13:43:42.998Z,99550.13
2023-04-23T13:46:09.533Z,99588.19
2023-04-23T13:48:35.902Z,99563.75
2023-04-23T13:51:02.247Z,99566.25
2023-04-23T13:53:28.776Z,99587.84
2023-04-23T13:55:56.514Z,99571.09
2023-04-23T13:58:23.829Z,99552.28
2023-04-23T14:00:50.493Z,99552.53
2023-04-23T14:03:17.217Z,99572.84
2023-04-23T14:05:46.270Z,99546.38
2023-04-23T14:08:13.023Z,99530.31
2023-04-23T14:10:41.785Z,99486.34
2023-04-23T14:13:09.924Z,99488.34
2023-04-23T14:15:36.476Z,99494.94
2023-04-23T14:18:02.955Z,99535.88
2023-04-23T14:20:29.510Z,99501.09
2023-04-23T14:23:01.780Z,99538.75
2023-04-23T14:25:39.519Z,99510.28
2023-04-23T14:28:21.132Z,99543.44
2023-04-23T14:30:47.788Z,99543.50
2023-04-23T14:33:14.100Z,99461.09
2023-04-23T14:35:51.220Z,99493.00
2023-04-23T14:38:28.991Z,99515.22
2023-04-23T14:40:57.725Z,99408.25
2023-04-23T14:43:24.193Z,99514.72
2023-04-23T14:45:51.856Z,99472.00
2023-04-23T14:48:18.313Z,99507.19
2023-04-23T14:50:44.700Z,99416.84
2023-04-23T14:53:11.201Z,99495.00
2023-04-23T14:55:39.713Z,99436.19
2023-04-23T14:58:06.323Z,99482.00
2023-04-23T15:00:33.425Z,99502.03
2023-04-23T15:03:02.644Z,99472.66
2023-04-23T15:05:29.124Z,99561.00
2023-04-23T15:07:55.445Z,99555.72
2023-04-23T15:10:23.404Z,99555.53
2023-04-23T15:13:31.709Z,99581.00
2023-04-23T15:16:02.915Z,99571.31
2023-04-23T15:18:29.606Z,99517.69
2023-04-23T15:20:56.075Z,99590.19
2023-04-23T15:23:24.126Z,99458.91
2023-04-23T15:25:51.151Z,99570.34
2023-04-23T15:28:17.833Z,99512.31
2023-04-23T15:30:44.909Z,99498.56
2023-04-23T15:33:11.345Z,99543.25
2023-04-23T15:35:37.689Z,99540.22
2023-04-23T15:38:04.034Z,99548.94
2023-04-23T15:40:30.581Z,99517.78
2023-04-23T15:42:56.920Z,99533.34
2023-04-23T15:45:23.300Z,99546.28
2023-04-23T15:47:51.634Z,99516.50
2023-04-23T15:50:22.338Z,99489.84
2023-04-23T15:52:50.429Z,99525.97
2023-04-23T15:55:17.712Z,99478.44
2023-04-23T15:57:44.116Z,99432.19
2023-04-23T16:00:11.077Z,99466.16
2023-04-23T16:02:37.807Z,99429.91
2023-04-23T16:05:05.165Z,99437.69
2023-04-23T16:07:31.558Z,99473.22
2023-04-23T16:09:57.944Z,99464.47
2023-04-23T16:12:24.291Z,99445.94
2023-04-23T16:14:50.688Z,99470.72
2023-04-23T16:17:17.212Z,99451.25
2023-04-23T16:19:43.901Z,99411.03
2023-04-23T16:22:10.605Z,99466.19
2023-04-23T16:24:37.211Z,99397.81
2023-04-23T16:27:06.168Z,99463.56
2023-04-23T16:29:32.719Z,99462.75
2023-04-23T16:31:59.035Z,99374.38
2023-04-23T16:34:25.719Z,99405.69
2023-04-23T16:36:52.154Z,99455.09
2023-04-23T16:39:18.595Z,99418.44
2023-04-23T16:41:45.023Z,99403.66
2023-04-23T16:44:11.426Z,99421.09
2023-04-23T16:46:37.909Z,99345.44
2023-04-23T16:49:04.383Z,99411.91
2023-04-23T16:51:32.343Z,99408.75
2023-04-23T16:53:58.885Z,99378.72
2023-04-23T16:56:25.732Z,99354.38
2023-04-23T16:58:52.951Z,99338.72
2023-04-23T17:01:19.374Z,99364.94
2023-04-23T17:03:45.998Z,99337.44
2023-04-23T17:06:25.961Z,99333.22
2023-04-23T17:08:52.385Z,99363.03
2023-04-23T17:11:18.825Z,99362.19
2023-04-23T17:13:45.227Z,99307.50
2023-04-23T17:16:12.026Z,99347.81
2023-04-23T17:18:38.436Z,99341.91
2023-04-23T17:21:04.900Z,99355.22
2023-04-23T17:23:31.410Z,99258.03
2023-04-23T17:25:57.762Z,99241.00
2023-04-23T17:28:24.172Z,99329.63
2023-04-23T17:30:50.699Z,99320.44
2023-04-23T17:33:18.019Z,99346.75
2023-04-23T17:35:44.585Z,99271.69
2023-04-23T17:38:11.130Z,99306.28
2023-04-23T17:40:39.294Z,99236.34
2023-04-23T17:43:06.189Z,99313.75
2023-04-23T17:45:32.599Z,99267.22
2023-04-23T17:47:59.138Z,99216.03
2023-04-23T17:50:25.768Z,99251.50
2023-04-23T17:52:52.193Z,99227.69
2023-04-23T17:55:21.769Z,99243.53
2023-04-23T17:57:48.795Z,99284.53
2023-04-23T18:00:17.486Z,99313.31
2023-04-23T18:02:44.875Z,99293.41
2023-04-23T18:05:13.775Z,99208.44
2023-04-23T18:07:41.635Z,99224.13
2023-04-23T18:10:08.675Z,99108.59
2023-04-23T18:12:35.840Z,99270.13
2023-04-23T18:15:02.573Z,99177.38
2023-04-23T18:17:29.167Z,99268.78
2023-04-23T18:19:55.531Z,99292.34
2023-04-23T18:22:22.030Z,99077.63
2023-04-23T18:24:50.312Z,99227.63
2023-04-23T18:27:17.433Z,99195.31
2023-04-23T18:29:44.508Z,99276.72
2023-04-23T18:32:15.878Z,99277.25
2023-04-23T18:34:47.625Z,99274.41
2023-04-23T18:37:33.089Z,99239.00
2023-04-23T18:40:00.132Z,99262.00
2023-04-23T18:42:26.474Z,99298.63
2023-04-23T18:44:52.861Z,99202.56
2023-04-23T18:47:19.725Z,99288.41
2023-04-23T18:49:52.659Z,99321.22
2023-04-23T18:52:19.074Z,99331.28
2023-04-23T18:54:45.482Z,99172.78
2023-04-23T18:57:11.812Z,99203.94
2023-04-23T18:59:38.222Z,99291.22
2023-04-23T19:02:05.358Z,99294.22
2023-04-23T19:04:35.090Z,99344.47
2023-04-23T19:07:01.841Z,99246.34
2023-04-23T19:09:28.745Z,99252.16
2023-04-23T19:11:55.477Z,99280.56
2023-04-23T19:14:22.096Z,99336.97
2023-04-23T19:16:50.174Z,99336.25
2023-04-23T19:19:17.283Z,99369.84
2023-04-23T19:21:43.748Z,99349.53
2023-04-23T19:24:10.206Z,99190.06
2023-04-23T19:26:36.629Z,99339.44
2023-04-23T19:29:03.708Z,99283.91
2023-04-23T19:31:30.665Z,99292.66
2023-04-23T19:33:57.334Z,99294.38
2023-04-23T19:36:23.680Z,99354.63
2023-04-23T19:38:50.177Z,99365.22
2023-04-23T19:41:16.495Z,99361.44
2023-04-23T19:43:43.104Z,99277.88
2023-04-23T19:46:09.947Z,99332.28
2023-04-23T19:48:43.907Z,99236.00
2023-04-23T19:51:10.462Z,99313.22
2023-04-23T19:53:37.084Z,99351.97
2023-04-23T19:56:04.073Z,99346.66
2023-04-23T19:58:30.411Z,99401.56
2023-04-23T20:00:56.969Z,99376.06
2023-04-23T20:03:23.820Z,99245.47
2023-04-23T20:05:52.345Z,99372.97
2023-04-23T20:08:26.152Z,99280.06
2023-04-23T20:10:53.908Z,99341.28
2023-04-23T20:13:21.210Z,99360.34
2023-04-23T20:15:49.842Z,99200.16
2023-04-23T20:18:16.902Z,99183.06
2023-04-23T20:20:45.620Z,99255.38
2023-04-23T20:23:12.027Z,99356.63
2023-04-23T20:25:38.474Z,99305.22
2023-04-23T20:28:05.049Z,99312.00
2023-04-23T20:30:31.390Z,99423.69
2023-04-23T20:32:58.138Z,99291.91
2023-04-23T20:35:24.661Z,99327.56
2023-04-23T20:37:52.879Z,99393.66
2023-04-23T20:40:19.468Z,99388.22
2023-04-23T20:42:46.498Z,99326.78
2023-04-23T20:45:14.285Z,99378.44
2023-04-23T20:47:41.240Z,99376.41
2023-04-23T20:50:08.333Z,99421.69
2023-04-23T20:52:34.724Z,99288.88
2023-04-23T20:55:01.061Z,99324.78
2023-04-23T20:57:27.454Z,99428.72
2023-04-23T20:59:53.820Z,99395.44
2023-04-23T21:02:20.464Z,99400.69
2023-04-23T21:04:46.987Z,99345.28
2023-04-23T21:07:13.449Z,99277.13
2023-04-23T21:09:39.837Z,99391.00
2023-04-23T21:12:06.307Z,99378.84
2023-04-23T21:14:33.308Z,99295.47
2023-04-23T21:16:59.835Z,99363.94
2023-04-23T21:19:26.246Z,99277.84
2023-04-23T21:21:52.633Z,99372.03
2023-04-23T21:24:19.060Z,99386.50
2023-04-23T21:26:45.470Z,99339.81
2023-04-23T21:29:11.899Z,99394.72
2023-04-23T21:31:43.699Z,99320.69
2023-04-23T21:34:10.115Z,99410.66
2023-04-23T21:36:36.590Z,99364.97
2023-04-23T21:39:03.142Z,99425.09
2023-04-23T21:41:29.646Z,99308.56
2023-04-23T21:43:56.280Z,99391.44
2023-04-23T21:46:23.695Z,99298.50
2023-04-23T21:48:53.643Z,99431.66
2023-04-23T21:51:21.872Z,99428.41
2023-04-23T21:53:49.015Z,99385.31
2023-04-23T21:56:16.090Z,99429.00
2023-04-23T21:58:42.920Z,99393.59
2023-04-23T22:01:09.334Z,99303.34
2023-04-23T22:03:38.529Z,99396.00
2023-04-23T22:06:05.670Z,99401.69
2023-04-23T22:08:32.870Z,99349.34
2023-04-23T22:10:59.371Z,99385.97
2023-04-23T22:13:25.852Z,99389.38
2023-04-23T22:15:52.363Z,99342.28
2023-04-23T22:18:18.851Z,99330.66
2023-04-23T22:20:48.178Z,99322.09
2023-04-23T22:23:15.415Z,99430.88
2023-04-23T22:25:42.010Z,99394.47
2023-04-23T22:28:08.550Z,99354.16
2023-04-23T22:30:34.891Z,99397.00
2023-04-23T22:33:01.362Z,99417.03
2023-04-23T22:35:28.143Z,99416.06
2023-04-23T22:37:54.544Z,99300.13
2023-04-23T22:40:21.444Z,99440.19
2023-04-23T22:42:47.870Z,99352.56
2023-04-23T22:45:14.240Z,99420.75
2023-04-23T22:47:40.870Z,99392.81
2023-04-23T22:50:08.934Z,99321.69
2023-04-23T22:52:35.468Z,99433.31
2023-04-23T22:55:02.053Z,99320.16
2023-04-23T22:57:28.568Z,99428.06
2023-04-23T22:59:55.059Z,99378.63
2023-04-23T23:02:21.525Z,99405.59
2023-04-23T23:04:47.955Z,99419.50
2023-04-23T23:07:14.954Z,99320.03
2023-04-23T23:09:41.542Z,99426.97
2023-04-23T23:12:09.016Z,99427.72
2023-04-23T23:14:37.809Z,99416.47
2023-04-23T23:17:06.351Z,99402.56
2023-04-23T23:19:32.860Z,99420.78
2023-04-23T23:21:59.335Z,99448.59
2023-04-23T23:24:25.913Z,99402.56
2023-04-23T23:26:52.311Z,99412.50
2023-04-23T23:29:18.792Z,99371.53
2023-04-23T23:31:45.355Z,99425.47
2023-04-23T23:34:12.030Z,99358.47
2023-04-23T23:36:38.501Z,99422.69
2023-04-23T23:39:05.374Z,99406.94
2023-04-23T23:41:31.761Z,99446.56
2023-04-23T23:43:58.133Z,99423.38
2023-04-23T23:46:25.429Z,99383.81
2023-04-23T23:48:51.832Z,99344.75
2023-04-23T23:51:18.195Z,99410.88
2023-04-23T23:53:44.732Z,99321.88
2023-04-23T23:56:11.086Z,99434.84
2023-04-23T23:58:37.417Z,99353.09
